createdAt,value
2023-05-09T00:00:40.310Z,19.17
2023-05-09T00:03:14.542Z,19.17
2023-05-09T00:05:47.584Z,24.40
2023-05-09T00:08:19.715Z,22.40
2023-05-09T00:10:52.599Z,26.25
2023-05-09T00:13:24.969Z,32.15
2023-05-09T00:15:58.735Z,18.20
2023-05-09T00:18:31.401Z,22.40
2023-05-09T00:21:04.279Z,19.57
2023-05-09T00:23:36.879Z,18.15
2023-05-09T00:26:09.034Z,23.83
2023-05-09T00:28:42.263Z,17.02
2023-05-09T00:31:14.714Z,28.92
2023-05-09T00:33:46.781Z,15.40
2023-05-09T00:36:18.900Z,22.15
2023-05-09T00:38:51.275Z,21.50
2023-05-09T00:41:23.609Z,27.00
2023-05-09T00:43:55.728Z,24.90
2023-05-09T00:46:28.239Z,17.55
2023-05-09T00:49:01.952Z,37.35
2023-05-09T00:51:34.966Z,24.63
2023-05-09T00:54:09.127Z,18.65
2023-05-09T00:56:41.162Z,13.65
2023-05-09T00:59:15.288Z,15.50
2023-05-09T01:01:47.997Z,18.12
2023-05-09T01:04:20.355Z,17.85
2023-05-09T01:07:01.365Z,16.65
2023-05-09T01:10:06.673Z,14.65
2023-05-09T01:12:44.527Z,12.88
2023-05-09T01:15:34.703Z,19.00
2023-05-09T01:18:09.787Z,15.03
2023-05-09T01:20:47.882Z,19.60
2023-05-09T01:23:41.565Z,15.32
2023-05-09T01:26:28.749Z,17.90
2023-05-09T01:29:21.438Z,21.90
2023-05-09T01:31:54.678Z,16.25
2023-05-09T01:34:29.764Z,19.48
2023-05-09T01:37:04.398Z,22.27
2023-05-09T01:39:39.360Z,17.82
2023-05-09T01:42:14.463Z,21.40
2023-05-09T01:44:48.712Z,23.02
2023-05-09T01:47:22.209Z,24.10
2023-05-09T01:49:56.434Z,23.50
2023-05-09T01:52:30.642Z,20.88
2023-05-09T01:55:03.392Z,19.62
2023-05-09T01:57:38.412Z,20.50
2023-05-09T02:00:13.306Z,17.12
2023-05-09T02:02:45.397Z,22.37
2023-05-09T02:05:19.226Z,21.77
2023-05-09T02:07:52.432Z,18.52
2023-05-09T02:10:25.632Z,22.07
2023-05-09T02:12:58.634Z,25.10
2023-05-09T02:15:31.448Z,20.45
2023-05-09T02:18:03.840Z,23.57
2023-05-09T02:20:36.355Z,34.03
2023-05-09T02:23:09.847Z,18.98
2023-05-09T02:25:42.735Z,22.25
2023-05-09T02:28:15.756Z,22.55
2023-05-09T02:30:50.337Z,16.77
2023-05-09T02:35:54.716Z,16.75
2023-05-09T02:38:27.464Z,16.02
2023-05-09T02:40:59.801Z,17.57
2023-05-09T02:43:32.074Z,18.37
2023-05-09T02:46:04.944Z,21.68
2023-05-09T02:48:38.451Z,15.05
2023-05-09T02:51:11.538Z,16.10
2023-05-09T02:53:44.215Z,19.40
2023-05-09T02:56:16.833Z,27.02
2023-05-09T02:58:51.034Z,21.85
2023-05-09T03:01:23.506Z,22.22
2023-05-09T03:03:55.937Z,20.95
2023-05-09T03:06:28.296Z,19.48
2023-05-09T03:09:01.811Z,16.05
2023-05-09T03:11:34.218Z,21.33
2023-05-09T03:14:08.500Z,18.07
2023-05-09T03:16:40.854Z,28.07
2023-05-09T03:19:14.723Z,24.63
2023-05-09T03:21:46.888Z,17.82
2023-05-09T03:24:19.024Z,26.73
2023-05-09T03:26:51.299Z,25.70
2023-05-09T03:29:23.551Z,20.17
2023-05-09T03:31:56.217Z,23.20
2023-05-09T03:34:28.782Z,22.50
2023-05-09T03:37:02.768Z,18.05
2023-05-09T03:39:35.445Z,18.05
2023-05-09T03:42:07.524Z,16.02
2023-05-09T03:44:39.645Z,14.75
2023-05-09T03:47:12.185Z,21.55
2023-05-09T03:49:44.758Z,15.83
2023-05-09T03:52:18.009Z,16.10
2023-05-09T03:54:50.920Z,21.70
2023-05-09T03:57:23.796Z,17.23
2023-05-09T03:59:57.754Z,19.27
2023-05-09T04:02:30.126Z,17.70
2023-05-09T04:05:02.908Z,17.55
2023-05-09T04:07:35.832Z,19.62
2023-05-09T04:10:09.677Z,19.25
2023-05-09T04:12:42.134Z,11.93
2023-05-09T04:15:14.993Z,17.73
2023-05-09T04:17:47.622Z,21.27
2023-05-09T04:20:19.715Z,15.50
2023-05-09T04:22:52.112Z,16.75
2023-05-09T04:25:25.025Z,11.10
2023-05-09T04:27:57.388Z,11.05
2023-05-09T04:30:29.744Z,15.43
2023-05-09T04:33:02.925Z,14.43
2023-05-09T04:35:35.699Z,11.10
2023-05-09T04:38:08.289Z,11.57
2023-05-09T04:40:41.025Z,8.53
2023-05-09T04:43:13.281Z,11.97
2023-05-09T04:45:46.694Z,9.18
2023-05-09T04:48:19.270Z,7.37
2023-05-09T04:50:51.408Z,10.35
2023-05-09T04:53:23.555Z,6.75
2023-05-09T04:55:56.468Z,7.03
2023-05-09T04:58:28.786Z,11.95
2023-05-09T05:01:01.122Z,12.33
2023-05-09T05:03:33.496Z,7.65
2023-05-09T05:06:06.073Z,7.53
2023-05-09T05:08:38.192Z,13.93
2023-05-09T05:11:10.486Z,6.90
2023-05-09T05:13:42.810Z,7.53
2023-05-09T05:16:15.217Z,8.35
2023-05-09T05:18:48.261Z,7.33
2023-05-09T05:21:20.614Z,8.15
2023-05-09T05:23:53.282Z,7.80
2023-05-09T05:26:25.779Z,7.62
2023-05-09T05:28:58.099Z,8.43
2023-05-09T05:31:31.619Z,7.20
2023-05-09T05:34:03.770Z,10.13
2023-05-09T05:36:37.444Z,6.53
2023-05-09T05:39:09.575Z,11.80
2023-05-09T05:41:41.537Z,11.55
2023-05-09T05:44:14.562Z,9.45
2023-05-09T05:46:47.372Z,7.40
2023-05-09T05:49:19.437Z,15.03
2023-05-09T05:51:51.733Z,8.38
2023-05-09T05:54:25.590Z,6.08
2023-05-09T05:56:58.634Z,3.30
2023-05-09T05:59:31.127Z,2.77
2023-05-09T06:02:03.420Z,1.92
2023-05-09T06:04:35.990Z,6.35
2023-05-09T06:07:08.494Z,5.95
2023-05-09T06:09:40.790Z,3.12
2023-05-09T06:12:14.519Z,7.40
2023-05-09T06:14:46.953Z,4.22
2023-05-09T06:17:19.680Z,5.85
2023-05-09T06:19:52.083Z,14.28
2023-05-09T06:22:24.166Z,8.45
2023-05-09T06:24:57.016Z,7.42
2023-05-09T06:27:29.070Z,5.30
2023-05-09T06:30:08.356Z,6.22
2023-05-09T06:32:36.846Z,4.78
2023-05-09T06:35:10.616Z,5.78
2023-05-09T06:37:44.303Z,4.95
2023-05-09T06:40:18.028Z,2.95
2023-05-09T06:42:50.234Z,2.72
2023-05-09T06:45:22.728Z,2.55
2023-05-09T06:47:54.944Z,3.52
2023-05-09T06:50:27.264Z,2.05
2023-05-09T06:52:59.476Z,1.47
2023-05-09T06:55:31.656Z,3.20
2023-05-09T06:58:04.927Z,3.17
2023-05-09T07:00:37.006Z,4.75
2023-05-09T07:03:09.455Z,3.20
2023-05-09T07:05:41.940Z,3.30
2023-05-09T07:08:14.125Z,2.33
2023-05-09T07:10:46.670Z,2.05
2023-05-09T07:13:18.941Z,4.12
2023-05-09T07:15:51.458Z,5.15
2023-05-09T07:18:23.640Z,1.30
2023-05-09T07:20:55.906Z,1.60
2023-05-09T07:23:28.014Z,4.70
2023-05-09T07:26:00.115Z,5.15
2023-05-09T07:28:32.445Z,2.90
2023-05-09T07:31:06.225Z,4.42
2023-05-09T07:33:38.746Z,2.80
2023-05-09T07:36:12.803Z,2.35
2023-05-09T07:38:45.119Z,1.72
2023-05-09T07:41:17.707Z,3.30
2023-05-09T07:43:50.239Z,1.87
2023-05-09T07:46:22.965Z,1.55
2023-05-09T07:48:55.673Z,4.22
2023-05-09T07:51:28.068Z,4.58
2023-05-09T07:54:00.285Z,5.25
2023-05-09T07:56:32.433Z,2.05
2023-05-09T07:59:04.593Z,3.98
2023-05-09T08:01:36.663Z,3.10
2023-05-09T08:04:09.904Z,0.80
2023-05-09T08:06:42.133Z,2.17
2023-05-09T08:09:14.154Z,2.27
2023-05-09T08:11:47.171Z,6.47
2023-05-09T08:14:19.590Z,2.60
2023-05-09T08:16:52.032Z,5.95
2023-05-09T08:19:25.777Z,2.33
2023-05-09T08:21:58.138Z,3.87
2023-05-09T08:24:32.011Z,2.27
2023-05-09T08:27:04.901Z,3.22
2023-05-09T08:29:36.980Z,3.45
2023-05-09T08:32:10.067Z,29.02
2023-05-09T08:34:42.577Z,3.05
2023-05-09T08:37:16.360Z,3.75
2023-05-09T08:39:49.098Z,4.67
2023-05-09T08:42:25.609Z,6.35
2023-05-09T08:44:57.921Z,4.03
2023-05-09T08:47:30.586Z,1.25
2023-05-09T08:50:04.487Z,1.32
2023-05-09T08:52:37.026Z,6.28
2023-05-09T08:55:10.239Z,4.37
2023-05-09T08:57:42.643Z,3.47
2023-05-09T09:00:20.246Z,4.55
2023-05-09T09:02:53.589Z,8.23
2023-05-09T09:05:40.663Z,5.85
2023-05-09T09:10:34.360Z,1.17
2023-05-09T09:13:07.823Z,2.70
2023-05-09T09:15:42.073Z,3.60
2023-05-09T09:18:19.905Z,4.40
2023-05-09T09:20:55.348Z,11.40
2023-05-09T09:23:30.152Z,2.35
2023-05-09T09:26:07.178Z,8.05
2023-05-09T09:28:40.304Z,3.25
2023-05-09T09:31:29.277Z,2.08
2023-05-09T09:34:05.111Z,2.00
2023-05-09T09:36:37.160Z,2.30
2023-05-09T09:39:09.788Z,3.45
2023-05-09T09:41:42.686Z,4.10
2023-05-09T09:44:16.917Z,2.27
2023-05-09T09:46:51.508Z,2.27
2023-05-09T09:49:24.946Z,6.83
2023-05-09T09:51:58.743Z,1.70
2023-05-09T09:54:33.625Z,7.67
2023-05-09T09:57:05.965Z,10.15
2023-05-09T09:59:38.203Z,9.00
2023-05-09T10:02:11.900Z,5.90
2023-05-09T10:04:45.029Z,7.20
2023-05-09T10:07:17.223Z,4.30
2023-05-09T10:09:49.588Z,3.72
2023-05-09T10:12:23.586Z,7.30
2023-05-09T10:14:56.526Z,4.78
2023-05-09T10:17:31.527Z,2.20
2023-05-09T10:20:06.891Z,6.50
2023-05-09T10:22:41.204Z,8.55
2023-05-09T10:25:21.642Z,3.75
2023-05-09T10:27:55.807Z,8.00
2023-05-09T10:30:31.453Z,4.03
2023-05-09T10:33:07.892Z,4.47
2023-05-09T10:35:48.346Z,4.53
2023-05-09T10:38:20.709Z,4.72
2023-05-09T10:40:54.610Z,4.05
2023-05-09T10:43:27.532Z,3.50
2023-05-09T10:45:59.780Z,3.25
2023-05-09T10:48:36.455Z,2.00
2023-05-09T10:51:10.615Z,10.63
2023-05-09T10:53:48.156Z,8.40
2023-05-09T10:56:36.030Z,9.00
2023-05-09T10:59:09.826Z,6.55
2023-05-09T11:01:42.081Z,4.92
2023-05-09T11:04:15.835Z,2.55
2023-05-09T11:06:51.640Z,2.33
2023-05-09T11:09:30.153Z,5.12
2023-05-09T11:12:11.157Z,1.52
2023-05-09T11:14:48.794Z,5.00
2023-05-09T11:17:29.568Z,4.08
2023-05-09T11:20:05.525Z,2.60
2023-05-09T11:22:44.738Z,3.10
2023-05-09T11:25:22.327Z,2.00
2023-05-09T11:27:57.768Z,6.67
2023-05-09T11:30:42.050Z,4.03
2023-05-09T11:33:33.627Z,4.05
2023-05-09T11:36:33.385Z,5.53
2023-05-09T11:39:12.508Z,3.37
2023-05-09T11:41:47.043Z,5.20
2023-05-09T11:44:21.740Z,4.42
2023-05-09T11:46:53.939Z,1.92
2023-05-09T11:49:26.023Z,3.22
2023-05-09T11:52:00.594Z,3.33
2023-05-09T11:57:03.896Z,5.10
2023-05-09T11:59:36.970Z,4.40
2023-05-09T12:02:09.150Z,4.47
2023-05-09T12:04:41.732Z,2.35
2023-05-09T12:07:14.362Z,3.30
2023-05-09T12:09:46.858Z,2.70
2023-05-09T12:12:20.753Z,6.90
2023-05-09T12:14:53.908Z,5.60
2023-05-09T12:17:26.849Z,8.95
2023-05-09T12:20:02.708Z,2.75
2023-05-09T12:22:37.798Z,3.67
2023-05-09T12:25:12.218Z,3.92
2023-05-09T12:27:44.933Z,3.42
2023-05-09T12:30:18.761Z,9.70
2023-05-09T12:32:51.089Z,6.37
2023-05-09T12:35:26.598Z,6.80
2023-05-09T12:38:00.523Z,8.20
2023-05-09T12:40:33.116Z,5.53
2023-05-09T12:43:05.445Z,3.80
2023-05-09T12:45:38.942Z,10.63
2023-05-09T12:48:11.816Z,10.90
2023-05-09T12:50:46.906Z,3.37
2023-05-09T12:53:32.412Z,3.55
2023-05-09T12:56:06.748Z,4.08
2023-05-09T12:58:39.676Z,4.72
2023-05-09T13:01:12.608Z,16.65
2023-05-09T13:03:45.157Z,8.88
2023-05-09T13:06:17.238Z,6.17
2023-05-09T13:08:52.799Z,8.80
2023-05-09T13:11:26.157Z,9.08
2023-05-09T13:13:58.967Z,8.35
2023-05-09T13:16:31.139Z,3.40
2023-05-09T13:19:05.125Z,9.33
2023-05-09T13:21:37.810Z,6.35
2023-05-09T13:24:09.940Z,6.45
2023-05-09T13:26:42.458Z,2.67
2023-05-09T13:29:14.568Z,8.68
2023-05-09T13:31:46.814Z,2.92
2023-05-09T13:34:18.914Z,2.58
2023-05-09T13:36:51.567Z,8.98
2023-05-09T13:39:23.562Z,3.45
2023-05-09T13:41:55.729Z,9.18
2023-05-09T13:44:29.091Z,6.92
2023-05-09T13:47:01.138Z,5.97
2023-05-09T13:49:33.710Z,6.67
2023-05-09T13:52:06.846Z,3.27
2023-05-09T13:54:39.160Z,7.03
2023-05-09T13:57:11.288Z,3.42
2023-05-09T13:59:44.295Z,8.05
2023-05-09T14:02:16.480Z,8.28
2023-05-09T14:04:48.701Z,4.65
2023-05-09T14:07:21.771Z,7.50
2023-05-09T14:09:58.800Z,5.12
2023-05-09T14:12:29.116Z,5.30
2023-05-09T14:15:02.265Z,1.75
2023-05-09T14:17:34.780Z,5.17
2023-05-09T14:20:08.472Z,2.75
2023-05-09T14:22:40.969Z,8.10
2023-05-09T14:25:13.686Z,9.05
2023-05-09T14:27:45.878Z,6.90
2023-05-09T14:30:18.263Z,6.72
2023-05-09T14:32:50.908Z,7.12
2023-05-09T14:35:23.487Z,11.83
2023-05-09T14:37:55.711Z,22.37
2023-05-09T14:40:29.767Z,4.72
2023-05-09T14:43:02.991Z,36.10
2023-05-09T14:45:35.075Z,2.98
2023-05-09T14:48:07.230Z,5.92
2023-05-09T14:50:39.444Z,2.47
2023-05-09T14:53:11.935Z,1.52
2023-05-09T14:55:44.071Z,6.53
2023-05-09T14:58:17.673Z,2.42
2023-05-09T15:00:50.665Z,4.72
2023-05-09T15:03:22.810Z,7.58
2023-05-09T15:05:55.203Z,7.12
2023-05-09T15:08:27.720Z,4.70
2023-05-09T15:11:00.186Z,3.58
2023-05-09T15:13:32.571Z,2.60
2023-05-09T15:16:04.775Z,3.60
2023-05-09T15:18:37.305Z,2.17
2023-05-09T15:21:09.858Z,6.58
2023-05-09T15:23:42.409Z,1.70
2023-05-09T15:26:15.019Z,5.50
2023-05-09T15:28:47.393Z,11.88
2023-05-09T15:31:24.145Z,7.35
2023-05-09T15:33:56.339Z,3.30
2023-05-09T15:36:34.054Z,5.83
2023-05-09T15:39:08.022Z,4.70
2023-05-09T15:41:40.241Z,8.33
2023-05-09T15:44:14.041Z,9.33
2023-05-09T15:46:46.242Z,6.87
2023-05-09T15:49:18.605Z,4.40
2023-05-09T15:51:50.792Z,13.85
2023-05-09T15:54:24.696Z,6.85
2023-05-09T15:56:56.978Z,6.65
2023-05-09T15:59:29.554Z,5.97
2023-05-09T16:02:01.833Z,7.42
2023-05-09T16:04:34.828Z,6.05
2023-05-09T16:07:07.246Z,5.67
2023-05-09T16:09:39.393Z,6.17
2023-05-09T16:12:11.493Z,10.05
2023-05-09T16:14:43.483Z,6.00
2023-05-09T16:17:15.730Z,7.10
2023-05-09T16:19:47.798Z,5.65
2023-05-09T16:22:19.960Z,7.62
2023-05-09T16:24:52.032Z,8.50
2023-05-09T16:27:24.734Z,5.60
2023-05-09T16:29:57.009Z,8.70
2023-05-09T16:32:29.145Z,10.78
2023-05-09T16:35:01.412Z,10.43
2023-05-09T16:37:35.698Z,4.50
2023-05-09T16:40:08.440Z,7.20
2023-05-09T16:42:42.793Z,15.43
2023-05-09T16:45:14.820Z,13.68
2023-05-09T16:47:47.596Z,8.93
2023-05-09T16:50:19.774Z,10.35
2023-05-09T16:52:52.118Z,7.90
2023-05-09T16:55:24.557Z,3.83
2023-05-09T16:57:56.650Z,7.28
2023-05-09T17:00:29.381Z,5.55
2023-05-09T17:03:02.584Z,8.50
2023-05-09T17:05:34.976Z,12.98
2023-05-09T17:08:07.031Z,13.05
2023-05-09T17:10:41.410Z,6.92
2023-05-09T17:13:13.393Z,8.85
2023-05-09T17:15:45.899Z,11.50
2023-05-09T17:18:29.170Z,7.33
2023-05-09T17:20:52.749Z,11.70
2023-05-09T17:23:25.248Z,15.75
2023-05-09T17:25:57.560Z,9.73
2023-05-09T17:28:29.464Z,10.35
2023-05-09T17:31:01.906Z,13.88
2023-05-09T17:33:34.269Z,20.02
2023-05-09T17:36:06.732Z,12.30
2023-05-09T17:38:39.544Z,10.20
2023-05-09T17:41:12.227Z,13.40
2023-05-09T17:43:44.881Z,15.15
2023-05-09T17:46:17.112Z,12.20
2023-05-09T17:48:49.426Z,29.52
2023-05-09T17:51:21.989Z,12.93
2023-05-09T17:53:54.335Z,18.42
2023-05-09T17:56:26.425Z,19.95
2023-05-09T17:59:00.152Z,9.28
2023-05-09T18:01:32.261Z,19.77
2023-05-09T18:04:04.574Z,9.98
2023-05-09T18:06:37.616Z,17.35
2023-05-09T18:09:10.213Z,14.53
2023-05-09T18:11:42.959Z,17.75
2023-05-09T18:14:15.526Z,13.20
2023-05-09T18:16:48.122Z,16.55
2023-05-09T18:19:20.349Z,17.37
2023-05-09T18:21:52.465Z,28.65
2023-05-09T18:24:26.008Z,21.40
2023-05-09T18:26:59.764Z,16.87
2023-05-09T18:29:32.383Z,21.17
2023-05-09T18:32:06.963Z,17.82
2023-05-09T18:34:42.683Z,18.12
2023-05-09T18:37:15.012Z,20.50
2023-05-09T18:39:47.812Z,24.00
2023-05-09T18:42:19.933Z,15.93
2023-05-09T18:44:52.025Z,22.80
2023-05-09T18:47:25.559Z,13.62
2023-05-09T18:49:58.490Z,17.30
2023-05-09T18:52:34.838Z,21.07
2023-05-09T18:55:07.938Z,16.67
2023-05-09T18:57:39.988Z,28.62
2023-05-09T19:00:13.080Z,22.70
2023-05-09T19:02:45.399Z,17.95
2023-05-09T19:05:17.619Z,22.13
2023-05-09T19:07:49.897Z,22.95
2023-05-09T19:10:21.959Z,21.02
2023-05-09T19:12:54.399Z,19.30
2023-05-09T19:15:26.894Z,17.92
2023-05-09T19:17:59.179Z,16.02
2023-05-09T19:20:31.612Z,15.38
2023-05-09T19:23:03.772Z,9.28
2023-05-09T19:25:37.090Z,14.58
2023-05-09T19:28:09.300Z,9.38
2023-05-09T19:30:41.495Z,9.68
2023-05-09T19:33:13.924Z,9.73
2023-05-09T19:35:46.322Z,14.30
2023-05-09T19:38:18.657Z,13.60
2023-05-09T19:40:51.315Z,13.35
2023-05-09T19:43:23.552Z,11.65
2023-05-09T19:45:55.704Z,29.55
2023-05-09T19:48:27.768Z,22.65
2023-05-09T19:50:59.989Z,14.23
2023-05-09T19:53:32.267Z,26.20
2023-05-09T19:56:04.434Z,16.05
2023-05-09T19:58:37.021Z,18.12
2023-05-09T20:01:09.256Z,9.78
2023-05-09T20:03:43.063Z,13.60
2023-05-09T20:09:04.768Z,20.75
2023-05-09T20:11:36.903Z,15.55
2023-05-09T20:14:09.080Z,16.93
2023-05-09T20:16:42.905Z,15.75
2023-05-09T20:19:16.075Z,20.37
2023-05-09T20:21:48.303Z,13.25
2023-05-09T20:24:21.326Z,16.10
2023-05-09T20:26:55.141Z,16.95
2023-05-09T20:29:27.452Z,16.27
2023-05-09T20:31:59.911Z,18.48
2023-05-09T20:34:32.520Z,18.20
2023-05-09T20:37:04.952Z,15.80
2023-05-09T20:39:37.041Z,16.67
2023-05-09T20:42:09.145Z,17.90
2023-05-09T20:44:42.248Z,10.58
2023-05-09T20:47:14.465Z,19.17
2023-05-09T20:49:46.662Z,14.83
2023-05-09T20:52:19.025Z,15.50
2023-05-09T20:54:51.767Z,23.22
2023-05-09T20:57:23.895Z,20.17
2023-05-09T20:59:56.083Z,23.77
2023-05-09T21:02:28.273Z,18.73
2023-05-09T21:05:00.454Z,18.32
2023-05-09T21:07:34.194Z,25.83
2023-05-09T21:10:06.722Z,17.57
2023-05-09T21:12:39.624Z,23.87
2023-05-09T21:15:12.248Z,16.07
2023-05-09T21:17:44.594Z,19.62
2023-05-09T21:20:17.343Z,15.93
2023-05-09T21:22:49.916Z,14.80
2023-05-09T21:25:22.127Z,12.40
2023-05-09T21:27:54.487Z,16.07
2023-05-09T21:30:26.590Z,21.23
2023-05-09T21:32:58.936Z,24.77
2023-05-09T21:35:31.257Z,16.93
2023-05-09T21:38:03.821Z,14.75
2023-05-09T21:40:35.964Z,19.52
2023-05-09T21:43:08.232Z,25.75
2023-05-09T21:45:40.533Z,12.33
2023-05-09T21:48:12.810Z,14.98
2023-05-09T21:50:47.610Z,15.50
2023-05-09T21:53:19.902Z,21.97
2023-05-09T21:55:52.095Z,20.02
2023-05-09T21:58:24.290Z,13.95
2023-05-09T22:00:56.316Z,12.00
2023-05-09T22:03:28.794Z,13.38
2023-05-09T22:06:01.168Z,20.97
2023-05-09T22:08:33.466Z,13.05
2023-05-09T22:11:06.022Z,14.30
2023-05-09T22:13:38.364Z,12.85
2023-05-09T22:16:11.067Z,10.43
2023-05-09T22:18:43.383Z,9.80
2023-05-09T22:21:15.415Z,10.40
2023-05-09T22:23:47.596Z,7.87
2023-05-09T22:26:19.800Z,10.35
2023-05-09T22:28:51.991Z,12.28
2023-05-09T22:31:24.061Z,10.72
2023-05-09T22:33:56.142Z,9.95
2023-05-09T22:36:28.203Z,11.33
2023-05-09T22:39:02.167Z,8.35
2023-05-09T22:41:34.895Z,14.18
2023-05-09T22:44:07.139Z,10.50
2023-05-09T22:46:39.148Z,8.78
2023-05-09T22:49:14.211Z,8.95
2023-05-09T22:51:46.509Z,8.35
2023-05-09T22:54:20.447Z,12.70
2023-05-09T22:56:52.478Z,13.18
2023-05-09T22:59:24.522Z,12.53
2023-05-09T23:01:58.201Z,17.95
2023-05-09T23:04:30.922Z,20.57
2023-05-09T23:07:02.972Z,12.00
2023-05-09T23:09:35.382Z,12.75
2023-05-09T23:12:09.686Z,13.53
2023-05-09T23:14:42.062Z,17.87
2023-05-09T23:17:14.070Z,14.18
2023-05-09T23:19:46.283Z,12.45
2023-05-09T23:22:18.418Z,16.25
2023-05-09T23:24:50.461Z,10.98
2023-05-09T23:27:22.689Z,14.10
2023-05-09T23:29:54.756Z,14.65
2023-05-09T23:32:26.900Z,18.05
2023-05-09T23:34:59.020Z,13.95
2023-05-09T23:37:32.708Z,16.20
2023-05-09T23:40:05.527Z,13.25
2023-05-09T23:42:36.816Z,17.48
2023-05-09T23:45:09.654Z,10.93
2023-05-09T23:47:41.794Z,15.78
2023-05-09T23:50:14.102Z,10.82
2023-05-09T23:52:48.189Z,10.80
2023-05-09T23:55:20.799Z,15.40
2023-05-09T23:57:52.981Z,16.48
